createdAt,value
2018-04-27T20:06:04.307Z,62.70
2018-04-27T20:09:21.782Z,62.60
2018-04-27T20:12:28.736Z,63.30
2018-04-27T20:20:51.996Z,61.20
2018-04-27T20:23:55.511Z,61.10
2018-04-27T20:27:14.150Z,59.20
2018-04-27T20:30:30.230Z,59.50
2018-04-27T20:33:41.121Z,60.60
2018-04-27T20:37:02.308Z,59.20
2018-04-27T20:42:50.500Z,60.00
2018-04-27T20:49:32.476Z,59.50
2018-04-27T20:54:41.250Z,59.40
2018-04-27T20:59:55.037Z,58.30
2018-04-27T21:04:59.471Z,55.10
2018-04-27T21:10:10.630Z,51.20
2018-04-27T21:15:16.714Z,49.90
2018-04-27T21:20:25.754Z,51.00
2018-04-27T21:25:47.413Z,53.90
2018-04-27T21:36:14.017Z,53.70
2018-04-27T21:47:23.698Z,51.50
2018-04-27T21:58:09.855Z,51.30
2018-04-27T22:03:15.583Z,51.60
2018-04-27T22:08:30.902Z,52.30
2018-04-27T22:19:18.739Z,52.70
2018-04-27T22:24:32.783Z,52.50
2018-04-27T22:29:41.927Z,52.70
2018-04-27T22:35:00.073Z,53.20
2018-04-27T22:46:04.083Z,53.70
2018-04-27T22:51:13.191Z,54.10
2018-04-27T23:02:20.421Z,53.70
2018-04-27T23:07:43.543Z,54.30
2018-04-27T23:12:51.563Z,54.90
2018-04-27T23:17:57.661Z,54.80
2018-04-27T23:23:07.836Z,53.70
2018-04-27T23:28:12.915Z,53.20
2018-04-27T23:33:18.072Z,54.00
2018-04-27T23:38:23.804Z,54.00
2018-04-27T23:48:43.065Z,56.10
2018-04-27T23:53:48.080Z,56.10
2018-04-27T23:59:01.885Z,56.80
